Time;durP1;ratioP1;P1;durP2;ratioP2;P2;SDS_P1;SDS_P2;PMS_P1;PMS_P2;Temp;Humidity;BMP_temperature;BMP_pressure;BME280_temperature;BME280_humidity;BME280_pressure;Samples;Min_cycle;Max_cycle;Signal;HPM_P1;HPM_P2
2023/11/28 05:43:34;;;;;;;11.00;5.80;;;;;;;-6.83;95.77;99441.88;107266;1279;23216;-46
2023/11/28 05:46:01;;;;;;;15.00;7.20;;;;;;;-6.75;95.20;99443.02;110970;1262;22611;-47
2023/11/28 05:48:29;;;;;;;12.20;7.10;;;;;;;-6.70;95.05;99441.25;109641;1264;22376;-48
2023/11/28 05:50:56;;;;;;;14.80;7.10;;;;;;;-6.62;95.00;99438.12;112185;1248;25476;-50
2023/11/28 05:53:24;;;;;;;22.70;7.10;;;;;;;-6.52;94.91;99431.89;112358;1245;22978;-50
2023/11/28 05:55:51;;;;;;;14.10;7.10;;;;;;;-6.41;94.80;99435.55;111495;1254;22562;-47
2023/11/28 05:58:18;;;;;;;18.20;7.50;;;;;;;-6.30;94.49;99437.83;109984;1244;22614;-50
2023/11/28 06:00:44;;;;;;;10.70;6.60;;;;;;;-6.19;94.48;99440.24;110220;1256;22526;-51
2023/11/28 06:03:11;;;;;;;10.80;7.10;;;;;;;-6.06;94.25;99443.80;109975;1256;22434;-50
2023/11/28 06:05:38;;;;;;;12.10;7.60;;;;;;;-5.95;93.97;99442.41;112340;1245;23075;-50
2023/11/28 06:08:09;;;;;;;10.30;6.40;;;;;;;-5.85;93.36;99443.02;112215;1247;22312;-47
2023/11/28 06:10:35;;;;;;;18.90;9.60;;;;;;;-5.75;92.93;99439.64;111781;1247;23166;-49
2023/11/28 06:13:03;;;;;;;14.80;7.60;;;;;;;-5.64;92.56;99435.76;112283;1256;22398;-51
2023/11/28 06:15:29;;;;;;;13.90;7.30;;;;;;;-5.55;92.05;99437.91;112250;1256;22413;-51
2023/11/28 06:17:56;;;;;;;15.90;6.90;;;;;;;-5.48;90.97;99441.66;112132;1246;22342;-50
2023/11/28 06:20:23;;;;;;;13.80;7.40;;;;;;;-5.43;90.54;99436.13;112197;1244;22565;-50
2023/11/28 06:22:54;;;;;;;12.90;7.50;;;;;;;-5.37;90.30;99435.05;112260;1256;22836;-49
2023/11/28 06:25:21;;;;;;;13.50;6.70;;;;;;;-5.30;89.62;99442.17;112199;1242;22527;-47
2023/11/28 06:27:48;;;;;;;13.40;6.90;;;;;;;-5.28;89.18;99442.15;112180;1256;22372;-47
2023/11/28 06:30:15;;;;;;;10.40;6.30;;;;;;;-5.22;88.90;99445.48;112194;1256;22392;-51
2023/11/28 06:32:42;;;;;;;14.50;6.80;;;;;;;-5.17;88.44;99440.44;111719;1245;23184;-49
2023/11/28 06:35:10;;;;;;;13.10;6.40;;;;;;;-5.14;88.12;99440.30;111988;1246;23173;-49
2023/11/28 06:37:38;;;;;;;10.80;6.10;;;;;;;-5.06;87.98;99435.52;112050;1249;22369;-49
2023/11/28 06:40:15;;;;;;;11.70;6.10;;;;;;;-4.97;87.83;99437.17;111535;1256;23031;-50
2023/11/28 06:42:50;;;;;;;10.80;5.00;;;;;;;-4.89;87.33;99438.25;111442;1256;22400;-49
2023/11/28 06:45:25;;;;;;;9.60;5.40;;;;;;;-4.82;86.68;99440.61;111684;1254;22271;-48
2023/11/28 06:47:54;;;;;;;12.20;6.60;;;;;;;-4.77;86.03;99443.89;111812;1256;22266;-49
2023/11/28 06:50:22;;;;;;;47.70;24.20;;;;;;;-4.74;85.74;99443.54;111177;1248;22458;-45
2023/11/28 06:52:49;;;;;;;59.10;32.10;;;;;;;-4.70;85.40;99444.05;112142;1256;22557;-45
2023/11/28 06:55:20;;;;;;;36.20;14.20;;;;;;;-4.66;85.12;99443.41;111312;1256;22648;-46
2023/11/28 06:57:49;;;;;;;22.40;10.10;;;;;;;-4.60;85.04;99442.83;111462;1251;23282;-46
2023/11/28 07:00:16;;;;;;;20.70;8.90;;;;;;;-4.53;84.97;99442.83;112139;1252;22400;-46
2023/11/28 07:02:43;;;;;;;13.80;8.10;;;;;;;-4.40;85.52;99446.83;112064;1244;22264;-50
2023/11/28 07:05:10;;;;;;;26.10;11.80;;;;;;;-4.25;85.54;99453.13;110274;1256;22509;-46
2023/11/28 07:07:38;;;;;;;22.10;11.80;;;;;;;-4.09;84.58;99461.14;111273;1248;25859;-49
2023/11/28 07:10:06;;;;;;;23.10;12.20;;;;;;;-4.04;83.70;99460.71;111212;1244;23620;-46
2023/11/28 07:12:34;;;;;;;26.70;14.70;;;;;;;-3.97;83.51;99462.86;111488;1245;22208;-46
2023/11/28 07:15:02;;;;;;;36.00;19.50;;;;;;;-3.88;83.13;99466.86;111290;1255;22608;-50
2023/11/28 07:17:30;;;;;;;32.70;16.90;;;;;;;-3.72;83.39;99469.46;111721;1256;22285;-50
2023/11/28 07:19:57;;;;;;;33.90;18.80;;;;;;;-3.52;83.18;99466.38;111959;1253;22256;-50
2023/11/28 07:22:24;;;;;;;32.20;16.70;;;;;;;-3.36;82.92;99465.55;111992;1244;22935;-46
2023/11/28 07:24:50;;;;;;;31.70;16.70;;;;;;;-3.23;82.89;99461.14;111961;1245;22817;-50
2023/11/28 07:27:28;;;;;;;35.40;18.30;;;;;;;-3.10;82.33;99465.55;112004;1244;22304;-48
2023/11/28 07:29:55;;;;;;;38.00;20.50;;;;;;;-2.98;82.27;99463.16;112033;1244;23201;-47
2023/11/28 07:32:23;;;;;;;45.10;24.00;;;;;;;-2.80;82.02;99465.59;112107;1246;22498;-47
2023/11/28 07:34:53;;;;;;;52.90;28.10;;;;;;;-2.65;81.54;99467.23;111878;1256;22927;-51
2023/11/28 07:37:26;;;;;;;43.50;26.70;;;;;;;-2.54;80.97;99469.67;110377;1256;22506;-47
2023/11/28 07:39:57;;;;;;;46.90;26.00;;;;;;;-2.47;80.80;99473.55;111040;1256;22461;-46
2023/11/28 07:42:29;;;;;;;52.20;27.00;;;;;;;-2.36;80.36;99479.08;112080;1244;22796;-51
2023/11/28 07:44:57;;;;;;;46.10;26.70;;;;;;;-2.26;79.91;99480.16;112036;1244;22693;-50
2023/11/28 07:47:23;;;;;;;54.40;28.80;;;;;;;-2.15;79.07;99483.83;112159;1244;22382;-47
2023/11/28 07:50:02;;;;;;;49.30;27.30;;;;;;;-2.08;78.89;99486.15;111728;1244;22282;-45
2023/11/28 07:52:31;;;;;;;49.30;26.40;;;;;;;-1.98;78.51;99488.39;110766;1256;22402;-47
2023/11/28 07:55:08;;;;;;;51.60;28.30;;;;;;;-1.88;78.78;99482.28;110558;1248;22500;-50
2023/11/28 07:57:59;;;;;;;53.40;27.60;;;;;;;-1.78;78.73;99481.95;110641;1256;22612;-50
2023/11/28 08:00:41;;;;;;;59.40;29.20;;;;;;;-1.68;78.55;99485.55;111805;1254;23729;-49
2023/11/28 08:03:26;;;;;;;60.90;30.30;;;;;;;-1.52;78.25;99477.06;111778;1252;22151;-51
2023/11/28 08:05:55;;;;;;;57.70;31.20;;;;;;;-1.34;78.30;99476.98;111332;1250;22424;-49
2023/11/28 08:08:23;;;;;;;56.70;28.80;;;;;;;-1.17;77.64;99471.91;111067;1252;22558;-50
2023/11/28 08:10:51;;;;;;;50.40;27.40;;;;;;;-1.07;77.01;99472.27;110981;1252;23339;-46
2023/11/28 08:13:24;;;;;;;38.90;21.80;;;;;;;-0.96;77.08;99472.78;111845;1252;22589;-51
2023/11/28 08:15:53;;;;;;;39.60;21.20;;;;;;;-0.92;74.98;99476.02;110501;1252;22427;-46
2023/11/28 08:18:19;;;;;;;36.60;19.70;;;;;;;-1.00;74.45;99470.95;112423;1252;22349;-50
2023/11/28 08:20:46;;;;;;;42.40;19.60;;;;;;;-1.02;74.77;99463.70;111951;1252;22316;-49
2023/11/28 08:23:13;;;;;;;31.50;16.70;;;;;;;-0.97;74.99;99465.92;112066;1241;25318;-51
2023/11/28 08:25:41;;;;;;;26.40;14.30;;;;;;;-0.93;74.06;99468.94;111843;1252;22953;-48
2023/11/28 08:28:08;;;;;;;23.80;12.10;;;;;;;-0.94;73.73;99459.32;112007;1241;22427;-49
2023/11/28 08:30:36;;;;;;;15.30;9.50;;;;;;;-0.89;73.26;99457.63;112477;1245;22464;-48
2023/11/28 08:33:05;;;;;;;14.90;8.90;;;;;;;-0.91;72.81;99458.93;112099;1252;22498;-48
2023/11/28 08:35:32;;;;;;;13.70;8.30;;;;;;;-1.03;72.59;99450.30;111749;1242;22517;-42
2023/11/28 08:37:59;;;;;;;14.40;8.60;;;;;;;-1.21;72.98;99445.08;111427;1252;22441;-48
2023/11/28 08:40:26;;;;;;;15.40;9.10;;;;;;;-1.35;73.60;99450.62;112452;1245;22388;-50
2023/11/28 08:42:53;;;;;;;18.60;10.10;;;;;;;-1.41;74.38;99452.12;112536;1248;23587;-49
2023/11/28 08:45:20;;;;;;;22.70;11.80;;;;;;;-1.39;74.93;99454.60;112565;1248;22251;-49
2023/11/28 08:47:47;;;;;;;20.60;10.90;;;;;;;-1.34;75.28;99451.31;112501;1240;23162;-49
2023/11/28 08:50:14;;;;;;;24.70;11.70;;;;;;;-1.27;75.53;99448.30;112280;1241;22467;-43
2023/11/28 08:52:42;;;;;;;23.80;13.50;;;;;;;-1.20;75.13;99447.86;112340;1252;23046;-44
2023/11/28 08:55:09;;;;;;;22.60;13.50;;;;;;;-1.12;75.22;99445.41;112258;1249;22400;-44
2023/11/28 08:57:36;;;;;;;24.60;12.90;;;;;;;-1.02;75.31;99441.11;112375;1248;23025;-42
2023/11/28 09:00:03;;;;;;;26.90;13.70;;;;;;;-0.94;74.72;99443.43;112354;1252;22580;-42
2023/11/28 09:02:31;;;;;;;26.60;14.00;;;;;;;-0.84;74.78;99444.41;112305;1236;22327;-43
2023/11/28 09:04:58;;;;;;;23.80;13.00;;;;;;;-0.76;74.67;99439.35;112295;1240;22410;-49
2023/11/28 09:07:25;;;;;;;22.80;12.60;;;;;;;-0.73;74.33;99436.19;112247;1247;22374;-48
2023/11/28 09:09:52;;;;;;;22.80;11.70;;;;;;;-0.73;73.63;99442.20;112317;1241;22274;-48
2023/11/28 09:12:18;;;;;;;23.90;13.00;;;;;;;-0.74;73.63;99445.75;112292;1243;22819;-50
2023/11/28 09:14:47;;;;;;;20.90;11.30;;;;;;;-0.76;73.80;99443.63;112368;1246;23190;-48
2023/11/28 09:17:22;;;;;;;21.60;12.20;;;;;;;-0.76;73.99;99445.67;112293;1248;22264;-44
2023/11/28 09:19:50;;;;;;;23.60;13.10;;;;;;;-0.75;74.27;99439.06;112342;1248;22395;-49
2023/11/28 09:22:17;;;;;;;21.40;12.30;;;;;;;-0.68;74.62;99433.43;112382;1252;22870;-49
2023/11/28 09:24:44;;;;;;;22.40;11.20;;;;;;;-0.55;74.30;99422.03;112407;1249;23085;-49
2023/11/28 09:27:12;;;;;;;19.10;10.90;;;;;;;-0.43;73.87;99419.13;112385;1243;22376;-49
2023/11/28 09:29:41;;;;;;;18.70;11.20;;;;;;;-0.40;73.39;99414.95;112162;1252;22534;-49
2023/11/28 09:32:09;;;;;;;23.20;12.40;;;;;;;-0.36;73.19;99407.86;111231;1252;25417;-42
2023/11/28 09:34:36;;;;;;;18.40;10.20;;;;;;;-0.25;73.24;99403.20;112501;1252;22468;-48
2023/11/28 09:37:03;;;;;;;19.70;10.20;;;;;;;-0.16;73.23;99391.65;112130;1252;22409;-42
2023/11/28 09:39:30;;;;;;;18.10;9.30;;;;;;;-0.07;73.06;99387.27;111281;1241;24329;-47
2023/11/28 09:42:00;;;;;;;19.40;10.50;;;;;;;0.08;73.02;99382.20;111816;1252;22282;-45
2023/11/28 09:44:30;;;;;;;15.00;8.60;;;;;;;0.24;72.50;99379.89;111586;1252;24233;-44
2023/11/28 09:46:57;;;;;;;14.60;8.80;;;;;;;0.39;71.61;99378.73;112325;1252;22427;-41
2023/11/28 09:49:24;;;;;;;14.10;8.40;;;;;;;0.53;71.43;99377.73;112064;1243;22250;-43
2023/11/28 09:51:52;;;;;;;12.80;7.70;;;;;;;0.66;70.37;99372.74;112398;1239;22404;-43
2023/11/28 09:54:22;;;;;;;18.90;8.90;;;;;;;0.75;69.98;99370.03;112535;1249;22458;-49
2023/11/28 09:56:54;;;;;;;16.30;7.80;;;;;;;0.92;69.48;99376.98;111729;1252;22451;-49
2023/11/28 09:59:21;;;;;;;14.10;7.30;;;;;;;1.05;68.73;99365.26;111723;1252;22420;-42
2023/11/28 10:01:48;;;;;;;10.60;7.10;;;;;;;1.07;68.34;99357.39;112401;1246;22374;-44
2023/11/28 10:04:15;;;;;;;12.00;7.20;;;;;;;1.04;68.32;99349.63;111744;1252;199282;-48
2023/11/28 10:06:44;;;;;;;13.80;7.90;;;;;;;1.06;68.60;99346.73;112116;1252;22497;-49
2023/11/28 10:09:11;;;;;;;11.20;7.40;;;;;;;1.12;69.03;99340.00;112277;1252;22425;-49
2023/11/28 10:11:38;;;;;;;16.10;8.60;;;;;;;1.20;69.16;99335.55;112297;1252;22410;-49
2023/11/28 10:14:05;;;;;;;12.50;6.70;;;;;;;1.31;69.16;99339.39;112251;1242;23313;-49
2023/11/28 10:16:46;;;;;;;8.90;6.10;;;;;;;1.51;69.11;99335.52;112391;1238;22375;-49
2023/11/28 10:19:13;;;;;;;8.70;5.90;;;;;;;1.95;68.53;99333.32;112334;1252;23295;-49
2023/11/28 10:21:39;;;;;;;9.10;5.70;;;;;;;2.50;67.66;99331.20;112495;1252;22737;-49
2023/11/28 10:24:08;;;;;;;12.90;6.90;;;;;;;3.09;66.20;99331.96;112131;1252;22771;-49
2023/11/28 10:26:38;;;;;;;12.30;6.90;;;;;;;3.60;64.56;99327.14;112031;1252;22859;-50
2023/11/28 10:29:06;;;;;;;9.20;6.90;;;;;;;3.94;63.52;99323.76;112175;1248;23207;-43
2023/11/28 10:31:39;;;;;;;12.60;7.20;;;;;;;4.21;62.30;99320.24;112368;1252;22410;-44
2023/11/28 10:34:09;;;;;;;18.10;7.60;;;;;;;4.42;62.42;99320.10;111983;1252;23663;-51
2023/11/28 10:36:42;;;;;;;12.90;7.20;;;;;;;4.62;61.38;99320.79;112219;1245;23075;-49
2023/11/28 10:39:15;;;;;;;10.30;7.10;;;;;;;4.76;60.34;99314.00;111985;1248;23366;-49
2023/11/28 10:41:42;;;;;;;11.80;7.60;;;;;;;4.81;59.98;99310.76;112203;1240;23463;-43
2023/11/28 10:44:09;;;;;;;10.10;7.10;;;;;;;4.91;59.82;99312.04;112519;1252;22400;-42
2023/11/28 10:46:39;;;;;;;13.90;8.20;;;;;;;5.06;59.29;99305.74;112137;1242;22496;-48
2023/11/28 10:49:06;;;;;;;11.90;7.70;;;;;;;5.23;58.88;99307.91;112533;1248;22406;-48
2023/11/28 10:51:33;;;;;;;11.80;7.20;;;;;;;5.41;58.61;99305.24;112497;1251;22268;-49
2023/11/28 10:54:07;;;;;;;14.70;7.30;;;;;;;5.50;58.17;99305.30;112429;1252;22406;-49
2023/11/28 10:56:41;;;;;;;7.60;5.90;;;;;;;5.62;58.05;99298.59;112011;1239;22471;-43
2023/11/28 10:59:13;;;;;;;9.80;5.60;;;;;;;5.80;56.96;99299.71;112454;1249;22213;-49
2023/11/28 11:01:43;;;;;;;9.40;6.30;;;;;;;5.83;55.56;99292.79;112421;1252;22433;-44
2023/11/28 11:04:10;;;;;;;9.00;5.20;;;;;;;5.72;55.88;99285.49;112488;1252;22402;-45
2023/11/28 11:06:38;;;;;;;9.10;6.30;;;;;;;5.67;56.06;99284.77;112291;1243;23195;-43
2023/11/28 11:09:05;;;;;;;9.80;6.10;;;;;;;5.82;56.74;99278.27;112312;1245;22439;-43
2023/11/28 11:11:33;;;;;;;14.20;6.50;;;;;;;6.04;56.52;99276.95;112327;1248;22375;-48
2023/11/28 11:14:29;;;;;;;12.50;6.50;;;;;;;6.11;56.42;99272.64;112412;1252;22405;-43
2023/11/28 11:17:15;;;;;;;9.20;7.10;;;;;;;6.10;55.81;99268.31;112011;1252;22876;-49
2023/11/28 11:19:42;;;;;;;10.40;7.10;;;;;;;5.92;56.23;99259.27;112473;1252;23035;-44
2023/11/28 11:22:10;;;;;;;9.40;6.40;;;;;;;5.65;55.71;99256.05;112282;1244;22308;-43
2023/11/28 11:24:37;;;;;;;11.10;6.60;;;;;;;5.34;56.42;99256.63;112378;1252;22854;-43
2023/11/28 11:27:04;;;;;;;13.10;6.60;;;;;;;5.29;57.39;99251.77;112316;1252;22381;-50
2023/11/28 11:29:31;;;;;;;9.60;6.60;;;;;;;5.48;56.77;99252.19;112383;1241;22396;-44
2023/11/28 11:31:58;;;;;;;11.20;6.80;;;;;;;5.60;55.88;99249.98;112374;1252;22353;-50
2023/11/28 11:34:31;;;;;;;10.20;7.10;;;;;;;5.63;56.60;99241.86;112381;1240;22173;-45
2023/11/28 11:37:08;;;;;;;9.80;6.60;;;;;;;5.75;56.03;99238.44;112368;1240;22225;-51
2023/11/28 11:39:36;;;;;;;8.80;6.00;;;;;;;5.84;55.80;99242.95;112415;1240;22996;-49
2023/11/28 11:42:03;;;;;;;8.90;5.70;;;;;;;5.83;54.67;99246.92;112478;1252;22370;-44
2023/11/28 11:44:34;;;;;;;11.20;6.80;;;;;;;5.66;54.97;99252.42;112529;1252;22785;-50
2023/11/28 11:47:14;;;;;;;8.10;5.80;;;;;;;5.39;54.88;99253.35;112404;1252;22842;-44
2023/11/28 11:49:42;;;;;;;10.60;6.30;;;;;;;5.18;55.92;99252.91;111825;1252;22385;-50
2023/11/28 11:52:09;;;;;;;7.50;5.60;;;;;;;4.91;57.10;99253.10;110519;1252;22565;-45
2023/11/28 11:54:36;;;;;;;10.90;5.70;;;;;;;4.63;58.09;99251.19;112581;1252;23076;-43
2023/11/28 11:57:04;;;;;;;10.30;6.10;;;;;;;4.39;59.10;99244.96;110042;1252;22550;-51
2023/11/28 11:59:31;;;;;;;13.70;6.00;;;;;;;4.25;60.27;99239.66;110679;1252;22392;-44
2023/11/28 12:01:59;;;;;;;8.90;5.60;;;;;;;4.24;60.74;99239.32;110577;1252;22516;-44
2023/11/28 12:04:26;;;;;;;8.00;5.00;;;;;;;4.35;61.20;99236.98;109795;1251;24017;-49
2023/11/28 12:07:04;;;;;;;7.70;5.40;;;;;;;4.56;61.13;99231.80;109899;1252;22582;-45
2023/11/28 12:09:32;;;;;;;7.80;5.50;;;;;;;4.76;60.69;99231.77;110024;1240;22558;-50
2023/11/28 12:11:59;;;;;;;9.00;6.00;;;;;;;4.93;60.60;99227.38;112678;1252;22244;-50
2023/11/28 12:14:25;;;;;;;9.20;6.00;;;;;;;5.20;59.95;99224.73;112600;1241;22377;-43
2023/11/28 12:16:53;;;;;;;11.50;5.40;;;;;;;5.48;59.37;99220.70;112621;1242;22319;-49
2023/11/28 12:19:20;;;;;;;8.10;5.40;;;;;;;5.49;58.92;99215.02;112605;1252;22426;-45
2023/11/28 12:21:46;;;;;;;9.90;5.20;;;;;;;5.25;58.77;99215.95;110956;1240;24229;-49
2023/11/28 12:24:13;;;;;;;6.80;4.80;;;;;;;4.80;59.34;99212.42;112555;1251;22282;-44
2023/11/28 12:26:40;;;;;;;9.60;5.70;;;;;;;4.29;59.50;99215.88;112635;1252;22381;-44
2023/11/28 12:29:07;;;;;;;7.60;5.90;;;;;;;3.72;61.02;99214.66;110828;1252;24251;-50
2023/11/28 12:31:34;;;;;;;8.60;5.30;;;;;;;3.27;62.50;99216.58;112669;1249;22179;-49
2023/11/28 12:34:00;;;;;;;9.80;5.30;;;;;;;2.93;63.94;99214.77;111700;1241;22519;-43
2023/11/28 12:36:27;;;;;;;12.20;7.40;;;;;;;2.62;65.15;99220.02;111251;1252;23892;-44
2023/11/28 12:38:58;;;;;;;9.00;6.10;;;;;;;2.30;66.50;99219.00;112615;1252;22431;-46
2023/11/28 12:41:35;;;;;;;8.50;5.40;;;;;;;2.06;68.00;99224.97;112180;1248;22298;-50
2023/11/28 12:44:04;;;;;;;8.00;5.70;;;;;;;1.89;69.27;99226.91;111923;1252;24254;-51
2023/11/28 12:46:32;;;;;;;7.60;5.30;;;;;;;1.82;70.31;99226.44;112608;1252;23193;-50
2023/11/28 12:49:00;;;;;;;9.80;5.80;;;;;;;1.72;71.10;99232.62;112673;1252;22370;-44
2023/11/28 12:51:40;;;;;;;7.20;5.50;;;;;;;1.64;72.02;99229.71;111803;1252;22536;-49
2023/11/28 12:54:13;;;;;;;14.60;7.60;;;;;;;1.59;72.98;99221.89;111471;1252;22868;-42
2023/11/28 12:56:52;;;;;;;8.00;5.60;;;;;;;1.55;73.54;99213.21;112661;1252;22424;-44
2023/11/28 12:59:19;;;;;;;12.10;6.80;;;;;;;1.48;74.28;99212.40;112690;1252;22490;-50
2023/11/28 13:01:46;;;;;;;10.50;6.30;;;;;;;1.35;74.95;99210.10;112031;1252;22512;-49
2023/11/28 13:04:13;;;;;;;9.40;5.70;;;;;;;1.24;75.68;99205.25;111429;1252;22514;-50
2023/11/28 13:06:42;;;;;;;7.40;5.10;;;;;;;1.17;76.25;99199.61;111385;1242;22532;-43
2023/11/28 13:09:29;;;;;;;8.00;5.60;;;;;;;1.10;76.67;99200.65;112289;1249;23624;-49
2023/11/28 13:11:55;;;;;;;6.30;4.80;;;;;;;1.00;77.29;99202.16;112615;1252;22379;-50
2023/11/28 13:14:22;;;;;;;10.20;5.90;;;;;;;0.93;78.09;99201.52;112647;1252;22387;-50
2023/11/28 13:16:49;;;;;;;9.20;5.20;;;;;;;0.87;78.78;99198.48;111767;1240;22465;-51
2023/11/28 13:19:31;;;;;;;6.30;4.80;;;;;;;0.82;79.48;99195.27;110444;1252;22526;-45
2023/11/28 13:21:57;;;;;;;7.40;5.10;;;;;;;0.76;80.21;99194.64;112666;1252;23540;-43
2023/11/28 13:24:24;;;;;;;13.00;5.10;;;;;;;0.74;80.77;99192.33;111553;1240;23128;-49
2023/11/28 13:26:51;;;;;;;13.30;4.90;;;;;;;0.70;81.07;99195.19;110155;1252;22518;-42
2023/11/28 13:29:21;;;;;;;6.50;4.80;;;;;;;0.68;81.70;99189.98;112198;1252;22502;-49
2023/11/28 13:31:49;;;;;;;8.90;5.10;;;;;;;0.66;82.31;99188.40;110269;1241;22514;-50
2023/11/28 13:34:16;;;;;;;13.30;6.90;;;;;;;0.64;82.81;99186.13;110758;1252;25260;-50
2023/11/28 13:36:43;;;;;;;8.20;5.90;;;;;;;0.65;83.44;99183.40;110230;1252;22513;-44
2023/11/28 13:39:10;;;;;;;8.40;5.60;;;;;;;0.66;83.92;99178.95;112643;1252;22440;-49
2023/11/28 13:41:37;;;;;;;10.00;6.30;;;;;;;0.67;84.10;99170.39;112660;1247;22443;-43
